Terminal Aerodrome Forecast
Issued by NWS

Home | Current Version | Previous Version | Text Only | Print | Product List | Glossary On
Versions: 1 2 3 4 5 6 7 8 9 10 11 12 13 14 15
000
FTUS44 KEPZ 191140
TAFDMN
TAF
KDMN 191140Z 1912/2012 26010KT P6SM BKN050
     FM191400 25015G25KT P6SM VCSH FEW020 BKN040 BKN100
     FM191800 25025G35KT 5SM BLDU FEW025 BKN040 BKN090
     FM200100 26011KT P6SM SCT040 BKN090 OVC150=

USA.gov is the U.S. government's official web portal to all federal, state and local government web resources and services.